sensor_id;sensor_type;location;lat;lon;timestamp;P1;durP1;ratioP1;P2;durP2;ratioP2
31798;SDS011;18374;51.136;3.502;2023-04-23T00:02:17;37.53;;;21.90;;
31798;SDS011;18374;51.136;3.502;2023-04-23T00:04:50;36.10;;;21.38;;
31798;SDS011;18374;51.136;3.502;2023-04-23T00:07:19;36.40;;;21.48;;
31798;SDS011;18374;51.136;3.502;2023-04-23T00:09:49;35.30;;;21.27;;
31798;SDS011;18374;51.136;3.502;2023-04-23T00:12:18;35.42;;;21.20;;
31798;SDS011;18374;51.136;3.502;2023-04-23T00:14:47;36.67;;;21.05;;
31798;SDS011;18374;51.136;3.502;2023-04-23T00:17:15;37.70;;;22.42;;
31798;SDS011;18374;51.136;3.502;2023-04-23T00:19:43;32.65;;;20.60;;
31798;SDS011;18374;51.136;3.502;2023-04-23T00:22:10;31.73;;;20.05;;
31798;SDS011;18374;51.136;3.502;2023-04-23T00:24:39;35.25;;;21.15;;
31798;SDS011;18374;51.136;3.502;2023-04-23T00:27:08;33.78;;;19.85;;
31798;SDS011;18374;51.136;3.502;2023-04-23T00:29:35;35.28;;;20.60;;
31798;SDS011;18374;51.136;3.502;2023-04-23T00:32:03;36.65;;;21.27;;
31798;SDS011;18374;51.136;3.502;2023-04-23T00:34:31;35.97;;;20.77;;
31798;SDS011;18374;51.136;3.502;2023-04-23T00:36:59;34.95;;;20.35;;
31798;SDS011;18374;51.136;3.502;2023-04-23T00:39:27;38.75;;;20.85;;
31798;SDS011;18374;51.136;3.502;2023-04-23T00:41:55;32.17;;;20.25;;
31798;SDS011;18374;51.136;3.502;2023-04-23T00:44:22;31.92;;;19.35;;
31798;SDS011;18374;51.136;3.502;2023-04-23T00:46:50;34.17;;;20.58;;
31798;SDS011;18374;51.136;3.502;2023-04-23T00:49:19;31.50;;;19.67;;
31798;SDS011;18374;51.136;3.502;2023-04-23T00:51:48;34.28;;;20.83;;
31798;SDS011;18374;51.136;3.502;2023-04-23T00:54:16;37.47;;;21.42;;
31798;SDS011;18374;51.136;3.502;2023-04-23T00:56:44;38.92;;;22.15;;
31798;SDS011;18374;51.136;3.502;2023-04-23T00:59:11;38.88;;;22.60;;
31798;SDS011;18374;51.136;3.502;2023-04-23T01:01:40;33.55;;;21.38;;
31798;SDS011;18374;51.136;3.502;2023-04-23T01:04:08;34.70;;;22.60;;
31798;SDS011;18374;51.136;3.502;2023-04-23T01:06:38;37.58;;;22.83;;
31798;SDS011;18374;51.136;3.502;2023-04-23T01:09:07;38.97;;;22.88;;
31798;SDS011;18374;51.136;3.502;2023-04-23T01:11:38;39.97;;;22.85;;
31798;SDS011;18374;51.136;3.502;2023-04-23T01:14:09;41.30;;;23.73;;
31798;SDS011;18374;51.136;3.502;2023-04-23T01:16:37;36.88;;;22.13;;
31798;SDS011;18374;51.136;3.502;2023-04-23T01:19:06;36.88;;;22.38;;
31798;SDS011;18374;51.136;3.502;2023-04-23T01:21:36;33.10;;;21.48;;
31798;SDS011;18374;51.136;3.502;2023-04-23T01:24:08;38.67;;;22.45;;
31798;SDS011;18374;51.136;3.502;2023-04-23T01:26:38;34.78;;;21.50;;
31798;SDS011;18374;51.136;3.502;2023-04-23T01:29:07;35.78;;;21.55;;
31798;SDS011;18374;51.136;3.502;2023-04-23T01:31:36;38.03;;;21.33;;
31798;SDS011;18374;51.136;3.502;2023-04-23T01:34:04;33.75;;;21.95;;
31798;SDS011;18374;51.136;3.502;2023-04-23T01:36:32;39.10;;;22.00;;
31798;SDS011;18374;51.136;3.502;2023-04-23T01:39:02;36.17;;;21.55;;
31798;SDS011;18374;51.136;3.502;2023-04-23T01:41:29;41.97;;;22.15;;
31798;SDS011;18374;51.136;3.502;2023-04-23T01:43:57;37.47;;;21.48;;
31798;SDS011;18374;51.136;3.502;2023-04-23T01:46:26;33.35;;;20.20;;
31798;SDS011;18374;51.136;3.502;2023-04-23T01:48:55;34.28;;;20.10;;
31798;SDS011;18374;51.136;3.502;2023-04-23T01:51:23;34.00;;;21.35;;
31798;SDS011;18374;51.136;3.502;2023-04-23T01:53:53;40.35;;;21.77;;
31798;SDS011;18374;51.136;3.502;2023-04-23T01:56:22;34.60;;;20.75;;
31798;SDS011;18374;51.136;3.502;2023-04-23T01:58:53;34.53;;;20.83;;
31798;SDS011;18374;51.136;3.502;2023-04-23T02:01:22;34.65;;;20.02;;
31798;SDS011;18374;51.136;3.502;2023-04-23T02:03:50;41.15;;;22.13;;
31798;SDS011;18374;51.136;3.502;2023-04-23T02:06:18;30.88;;;19.38;;
31798;SDS011;18374;51.136;3.502;2023-04-23T02:08:46;33.47;;;19.95;;
31798;SDS011;18374;51.136;3.502;2023-04-23T02:11:14;34.63;;;20.33;;
31798;SDS011;18374;51.136;3.502;2023-04-23T02:13:41;36.42;;;20.92;;
31798;SDS011;18374;51.136;3.502;2023-04-23T02:16:09;34.47;;;21.40;;
31798;SDS011;18374;51.136;3.502;2023-04-23T02:18:39;36.15;;;21.98;;
31798;SDS011;18374;51.136;3.502;2023-04-23T02:21:07;37.80;;;22.70;;
31798;SDS011;18374;51.136;3.502;2023-04-23T02:23:34;38.42;;;22.10;;
31798;SDS011;18374;51.136;3.502;2023-04-23T02:26:02;38.45;;;22.35;;
31798;SDS011;18374;51.136;3.502;2023-04-23T02:28:30;42.00;;;23.45;;
31798;SDS011;18374;51.136;3.502;2023-04-23T02:30:58;34.53;;;21.25;;
31798;SDS011;18374;51.136;3.502;2023-04-23T02:33:26;37.38;;;21.75;;
31798;SDS011;18374;51.136;3.502;2023-04-23T02:35:54;36.45;;;21.73;;
31798;SDS011;18374;51.136;3.502;2023-04-23T02:38:21;37.78;;;21.17;;
31798;SDS011;18374;51.136;3.502;2023-04-23T02:40:49;36.03;;;20.35;;
31798;SDS011;18374;51.136;3.502;2023-04-23T02:43:17;35.00;;;21.15;;
31798;SDS011;18374;51.136;3.502;2023-04-23T02:45:45;33.60;;;21.20;;
31798;SDS011;18374;51.136;3.502;2023-04-23T02:48:12;37.75;;;21.75;;
31798;SDS011;18374;51.136;3.502;2023-04-23T02:50:40;37.35;;;22.02;;
31798;SDS011;18374;51.136;3.502;2023-04-23T02:53:08;38.35;;;22.55;;
31798;SDS011;18374;51.136;3.502;2023-04-23T02:55:36;39.88;;;22.27;;
31798;SDS011;18374;51.136;3.502;2023-04-23T02:58:04;37.60;;;21.73;;
31798;SDS011;18374;51.136;3.502;2023-04-23T03:00:34;38.72;;;21.73;;
31798;SDS011;18374;51.136;3.502;2023-04-23T03:03:02;44.50;;;22.83;;
31798;SDS011;18374;51.136;3.502;2023-04-23T03:05:30;42.88;;;22.85;;
31798;SDS011;18374;51.136;3.502;2023-04-23T03:07:58;41.03;;;22.73;;
31798;SDS011;18374;51.136;3.502;2023-04-23T03:10:26;35.53;;;21.17;;
31798;SDS011;18374;51.136;3.502;2023-04-23T03:12:53;37.00;;;20.88;;
31798;SDS011;18374;51.136;3.502;2023-04-23T03:15:22;37.55;;;22.13;;
31798;SDS011;18374;51.136;3.502;2023-04-23T03:17:53;35.90;;;20.52;;
31798;SDS011;18374;51.136;3.502;2023-04-23T03:20:21;33.97;;;20.85;;
31798;SDS011;18374;51.136;3.502;2023-04-23T03:22:49;34.47;;;20.45;;
31798;SDS011;18374;51.136;3.502;2023-04-23T03:25:17;36.25;;;20.33;;
31798;SDS011;18374;51.136;3.502;2023-04-23T03:27:46;34.55;;;19.45;;
31798;SDS011;18374;51.136;3.502;2023-04-23T03:30:14;32.40;;;18.75;;
31798;SDS011;18374;51.136;3.502;2023-04-23T03:32:41;33.85;;;18.40;;
31798;SDS011;18374;51.136;3.502;2023-04-23T03:35:11;32.00;;;19.17;;
31798;SDS011;18374;51.136;3.502;2023-04-23T03:37:43;33.60;;;18.98;;
31798;SDS011;18374;51.136;3.502;2023-04-23T03:40:11;33.50;;;19.38;;
31798;SDS011;18374;51.136;3.502;2023-04-23T03:42:40;39.40;;;19.45;;
31798;SDS011;18374;51.136;3.502;2023-04-23T03:45:11;30.38;;;17.90;;
31798;SDS011;18374;51.136;3.502;2023-04-23T03:47:43;35.70;;;18.30;;
31798;SDS011;18374;51.136;3.502;2023-04-23T03:50:11;30.23;;;17.85;;
31798;SDS011;18374;51.136;3.502;2023-04-23T03:52:41;31.95;;;18.13;;
31798;SDS011;18374;51.136;3.502;2023-04-23T03:55:16;33.22;;;18.35;;
31798;SDS011;18374;51.136;3.502;2023-04-23T03:57:46;32.15;;;18.30;;
31798;SDS011;18374;51.136;3.502;2023-04-23T04:00:22;29.60;;;17.25;;
31798;SDS011;18374;51.136;3.502;2023-04-23T04:02:50;31.55;;;17.98;;
31798;SDS011;18374;51.136;3.502;2023-04-23T04:05:20;28.83;;;16.60;;
31798;SDS011;18374;51.136;3.502;2023-04-23T04:07:51;31.58;;;17.65;;
31798;SDS011;18374;51.136;3.502;2023-04-23T04:10:18;30.27;;;16.70;;
31798;SDS011;18374;51.136;3.502;2023-04-23T04:12:47;30.10;;;16.50;;
31798;SDS011;18374;51.136;3.502;2023-04-23T04:15:14;27.15;;;15.88;;
31798;SDS011;18374;51.136;3.502;2023-04-23T04:17:47;25.67;;;15.52;;
31798;SDS011;18374;51.136;3.502;2023-04-23T04:20:14;23.65;;;14.48;;
31798;SDS011;18374;51.136;3.502;2023-04-23T04:22:42;25.92;;;14.70;;
31798;SDS011;18374;51.136;3.502;2023-04-23T04:25:10;25.33;;;15.15;;
31798;SDS011;18374;51.136;3.502;2023-04-23T04:27:38;27.23;;;14.45;;
31798;SDS011;18374;51.136;3.502;2023-04-23T04:30:07;26.88;;;14.43;;
31798;SDS011;18374;51.136;3.502;2023-04-23T04:32:35;24.48;;;13.95;;
31798;SDS011;18374;51.136;3.502;2023-04-23T04:35:05;23.60;;;13.25;;
31798;SDS011;18374;51.136;3.502;2023-04-23T04:37:35;25.58;;;13.00;;
31798;SDS011;18374;51.136;3.502;2023-04-23T04:40:02;20.25;;;11.73;;
31798;SDS011;18374;51.136;3.502;2023-04-23T04:42:33;21.02;;;11.13;;
31798;SDS011;18374;51.136;3.502;2023-04-23T04:45:02;21.42;;;11.65;;
31798;SDS011;18374;51.136;3.502;2023-04-23T04:47:30;22.77;;;10.73;;
31798;SDS011;18374;51.136;3.502;2023-04-23T04:49:58;17.10;;;10.30;;
31798;SDS011;18374;51.136;3.502;2023-04-23T04:52:26;17.00;;;9.73;;
31798;SDS011;18374;51.136;3.502;2023-04-23T04:54:54;18.58;;;10.05;;
31798;SDS011;18374;51.136;3.502;2023-04-23T04:57:21;23.25;;;9.38;;
31798;SDS011;18374;51.136;3.502;2023-04-23T04:59:49;17.52;;;9.38;;
31798;SDS011;18374;51.136;3.502;2023-04-23T05:02:17;17.90;;;9.18;;
31798;SDS011;18374;51.136;3.502;2023-04-23T05:04:46;17.77;;;9.18;;
31798;SDS011;18374;51.136;3.502;2023-04-23T05:07:13;18.40;;;8.05;;
31798;SDS011;18374;51.136;3.502;2023-04-23T05:09:41;14.30;;;8.00;;
31798;SDS011;18374;51.136;3.502;2023-04-23T05:12:11;19.48;;;8.13;;
31798;SDS011;18374;51.136;3.502;2023-04-23T05:14:38;16.98;;;8.43;;
31798;SDS011;18374;51.136;3.502;2023-04-23T05:17:06;15.73;;;8.07;;
31798;SDS011;18374;51.136;3.502;2023-04-23T05:19:34;15.20;;;7.72;;
31798;SDS011;18374;51.136;3.502;2023-04-23T05:22:02;17.40;;;8.60;;
31798;SDS011;18374;51.136;3.502;2023-04-23T05:24:33;15.45;;;7.95;;
31798;SDS011;18374;51.136;3.502;2023-04-23T05:27:00;14.20;;;7.35;;
31798;SDS011;18374;51.136;3.502;2023-04-23T05:29:28;18.40;;;7.95;;
31798;SDS011;18374;51.136;3.502;2023-04-23T05:31:56;13.45;;;6.85;;
31798;SDS011;18374;51.136;3.502;2023-04-23T05:34:24;12.30;;;6.78;;
31798;SDS011;18374;51.136;3.502;2023-04-23T05:36:51;11.82;;;6.78;;
31798;SDS011;18374;51.136;3.502;2023-04-23T05:39:19;12.02;;;5.95;;
31798;SDS011;18374;51.136;3.502;2023-04-23T05:41:47;14.98;;;6.47;;
31798;SDS011;18374;51.136;3.502;2023-04-23T05:44:15;10.63;;;6.05;;
31798;SDS011;18374;51.136;3.502;2023-04-23T05:46:42;13.95;;;6.28;;
31798;SDS011;18374;51.136;3.502;2023-04-23T05:49:10;14.00;;;6.07;;
31798;SDS011;18374;51.136;3.502;2023-04-23T05:51:38;15.60;;;5.72;;
31798;SDS011;18374;51.136;3.502;2023-04-23T05:54:05;12.82;;;5.45;;
31798;SDS011;18374;51.136;3.502;2023-04-23T05:56:33;13.55;;;5.50;;
31798;SDS011;18374;51.136;3.502;2023-04-23T05:59:01;16.00;;;5.03;;
31798;SDS011;18374;51.136;3.502;2023-04-23T06:01:29;14.90;;;5.90;;
31798;SDS011;18374;51.136;3.502;2023-04-23T06:03:56;11.27;;;5.18;;
31798;SDS011;18374;51.136;3.502;2023-04-23T06:06:24;10.07;;;4.82;;
31798;SDS011;18374;51.136;3.502;2023-04-23T06:08:53;12.52;;;4.72;;
31798;SDS011;18374;51.136;3.502;2023-04-23T06:11:21;11.77;;;4.30;;
31798;SDS011;18374;51.136;3.502;2023-04-23T06:13:49;11.07;;;4.90;;
31798;SDS011;18374;51.136;3.502;2023-04-23T06:16:17;18.15;;;5.10;;
31798;SDS011;18374;51.136;3.502;2023-04-23T06:18:45;10.75;;;4.50;;
31798;SDS011;18374;51.136;3.502;2023-04-23T06:21:12;18.20;;;4.65;;
31798;SDS011;18374;51.136;3.502;2023-04-23T06:23:41;13.18;;;5.40;;
31798;SDS011;18374;51.136;3.502;2023-04-23T06:26:08;14.68;;;3.88;;
31798;SDS011;18374;51.136;3.502;2023-04-23T06:28:36;14.52;;;4.75;;
31798;SDS011;18374;51.136;3.502;2023-04-23T06:31:28;11.55;;;4.28;;
31798;SDS011;18374;51.136;3.502;2023-04-23T06:33:56;11.68;;;4.45;;
31798;SDS011;18374;51.136;3.502;2023-04-23T06:36:24;11.27;;;4.05;;
31798;SDS011;18374;51.136;3.502;2023-04-23T06:38:52;10.48;;;4.13;;
31798;SDS011;18374;51.136;3.502;2023-04-23T06:41:20;7.78;;;3.80;;
31798;SDS011;18374;51.136;3.502;2023-04-23T06:43:59;12.32;;;4.22;;
31798;SDS011;18374;51.136;3.502;2023-04-23T06:46:31;14.13;;;4.00;;
31798;SDS011;18374;51.136;3.502;2023-04-23T06:48:59;11.20;;;4.00;;
31798;SDS011;18374;51.136;3.502;2023-04-23T06:51:27;11.85;;;4.30;;
31798;SDS011;18374;51.136;3.502;2023-04-23T06:53:54;12.48;;;3.88;;
31798;SDS011;18374;51.136;3.502;2023-04-23T06:56:22;8.40;;;4.30;;
31798;SDS011;18374;51.136;3.502;2023-04-23T06:58:51;14.50;;;4.35;;
31798;SDS011;18374;51.136;3.502;2023-04-23T07:01:20;13.90;;;4.07;;
31798;SDS011;18374;51.136;3.502;2023-04-23T07:03:49;9.98;;;3.60;;
31798;SDS011;18374;51.136;3.502;2023-04-23T07:06:18;17.20;;;4.95;;
31798;SDS011;18374;51.136;3.502;2023-04-23T07:08:46;11.45;;;3.55;;
31798;SDS011;18374;51.136;3.502;2023-04-23T07:11:14;6.82;;;3.20;;
31798;SDS011;18374;51.136;3.502;2023-04-23T07:13:42;12.27;;;4.03;;
31798;SDS011;18374;51.136;3.502;2023-04-23T07:16:10;9.52;;;3.38;;
31798;SDS011;18374;51.136;3.502;2023-04-23T07:18:38;5.63;;;3.30;;
31798;SDS011;18374;51.136;3.502;2023-04-23T07:21:05;10.13;;;3.20;;
31798;SDS011;18374;51.136;3.502;2023-04-23T07:23:33;10.45;;;3.30;;
31798;SDS011;18374;51.136;3.502;2023-04-23T07:26:01;7.28;;;3.30;;
31798;SDS011;18374;51.136;3.502;2023-04-23T07:28:31;9.85;;;3.28;;
31798;SDS011;18374;51.136;3.502;2023-04-23T07:30:58;11.02;;;3.10;;
31798;SDS011;18374;51.136;3.502;2023-04-23T07:33:28;14.10;;;3.20;;
31798;SDS011;18374;51.136;3.502;2023-04-23T07:35:57;10.15;;;3.15;;
31798;SDS011;18374;51.136;3.502;2023-04-23T07:38:24;13.18;;;3.10;;
31798;SDS011;18374;51.136;3.502;2023-04-23T07:40:52;8.57;;;2.72;;
31798;SDS011;18374;51.136;3.502;2023-04-23T07:43:20;12.32;;;3.10;;
31798;SDS011;18374;51.136;3.502;2023-04-23T07:45:48;12.85;;;3.72;;
31798;SDS011;18374;51.136;3.502;2023-04-23T07:48:15;7.72;;;2.75;;
31798;SDS011;18374;51.136;3.502;2023-04-23T07:50:43;11.35;;;3.15;;
31798;SDS011;18374;51.136;3.502;2023-04-23T07:53:11;8.52;;;2.78;;
31798;SDS011;18374;51.136;3.502;2023-04-23T07:55:38;12.77;;;3.00;;
31798;SDS011;18374;51.136;3.502;2023-04-23T07:58:06;10.77;;;3.47;;
31798;SDS011;18374;51.136;3.502;2023-04-23T08:00:34;9.98;;;3.10;;
31798;SDS011;18374;51.136;3.502;2023-04-23T08:03:02;17.33;;;3.75;;
31798;SDS011;18374;51.136;3.502;2023-04-23T08:05:30;11.38;;;3.35;;
31798;SDS011;18374;51.136;3.502;2023-04-23T08:07:58;11.23;;;3.30;;
31798;SDS011;18374;51.136;3.502;2023-04-23T08:10:25;7.35;;;2.72;;
31798;SDS011;18374;51.136;3.502;2023-04-23T08:12:53;6.20;;;2.72;;
31798;SDS011;18374;51.136;3.502;2023-04-23T08:15:21;10.30;;;3.03;;
31798;SDS011;18374;51.136;3.502;2023-04-23T08:17:49;10.88;;;3.00;;
31798;SDS011;18374;51.136;3.502;2023-04-23T08:20:17;9.27;;;2.97;;
31798;SDS011;18374;51.136;3.502;2023-04-23T08:22:45;13.35;;;3.35;;
31798;SDS011;18374;51.136;3.502;2023-04-23T08:25:13;12.40;;;3.05;;
31798;SDS011;18374;51.136;3.502;2023-04-23T08:27:41;7.43;;;2.78;;
31798;SDS011;18374;51.136;3.502;2023-04-23T08:30:08;10.43;;;2.90;;
31798;SDS011;18374;51.136;3.502;2023-04-23T08:32:37;8.15;;;2.72;;
31798;SDS011;18374;51.136;3.502;2023-04-23T08:35:06;10.88;;;2.83;;
31798;SDS011;18374;51.136;3.502;2023-04-23T08:37:35;11.98;;;3.53;;
31798;SDS011;18374;51.136;3.502;2023-04-23T08:40:05;11.30;;;3.03;;
31798;SDS011;18374;51.136;3.502;2023-04-23T08:42:52;8.05;;;2.60;;
31798;SDS011;18374;51.136;3.502;2023-04-23T08:45:24;10.80;;;2.90;;
31798;SDS011;18374;51.136;3.502;2023-04-23T08:47:54;9.38;;;2.90;;
31798;SDS011;18374;51.136;3.502;2023-04-23T08:52:57;10.65;;;3.10;;
31798;SDS011;18374;51.136;3.502;2023-04-23T08:55:24;10.27;;;3.13;;
31798;SDS011;18374;51.136;3.502;2023-04-23T08:57:56;9.77;;;3.20;;
31798;SDS011;18374;51.136;3.502;2023-04-23T09:00:24;7.32;;;3.80;;
31798;SDS011;18374;51.136;3.502;2023-04-23T09:02:52;10.07;;;3.72;;
31798;SDS011;18374;51.136;3.502;2023-04-23T09:05:20;12.75;;;4.63;;
31798;SDS011;18374;51.136;3.502;2023-04-23T09:07:48;12.15;;;4.13;;
31798;SDS011;18374;51.136;3.502;2023-04-23T09:10:16;13.43;;;4.80;;
31798;SDS011;18374;51.136;3.502;2023-04-23T09:12:44;9.32;;;4.20;;
31798;SDS011;18374;51.136;3.502;2023-04-23T09:15:14;10.52;;;3.30;;
31798;SDS011;18374;51.136;3.502;2023-04-23T09:17:43;11.68;;;3.45;;
31798;SDS011;18374;51.136;3.502;2023-04-23T09:20:13;9.60;;;3.55;;
31798;SDS011;18374;51.136;3.502;2023-04-23T09:25:15;10.38;;;2.42;;
31798;SDS011;18374;51.136;3.502;2023-04-23T09:27:45;10.10;;;2.80;;
31798;SDS011;18374;51.136;3.502;2023-04-23T09:30:15;8.35;;;3.28;;
31798;SDS011;18374;51.136;3.502;2023-04-23T09:32:44;8.07;;;2.97;;
31798;SDS011;18374;51.136;3.502;2023-04-23T09:35:14;11.55;;;2.88;;
31798;SDS011;18374;51.136;3.502;2023-04-23T09:37:43;7.85;;;2.45;;
31798;SDS011;18374;51.136;3.502;2023-04-23T09:40:21;4.80;;;2.35;;
31798;SDS011;18374;51.136;3.502;2023-04-23T09:42:51;5.88;;;2.72;;
31798;SDS011;18374;51.136;3.502;2023-04-23T09:45:21;6.55;;;2.72;;
31798;SDS011;18374;51.136;3.502;2023-04-23T09:50:30;7.70;;;2.50;;
31798;SDS011;18374;51.136;3.502;2023-04-23T09:52:59;9.98;;;2.22;;
31798;SDS011;18374;51.136;3.502;2023-04-23T09:55:28;9.98;;;2.58;;
31798;SDS011;18374;51.136;3.502;2023-04-23T09:58:03;9.50;;;2.85;;
31798;SDS011;18374;51.136;3.502;2023-04-23T10:00:34;8.73;;;2.35;;
31798;SDS011;18374;51.136;3.502;2023-04-23T10:03:07;7.53;;;3.03;;
31798;SDS011;18374;51.136;3.502;2023-04-23T10:05:37;8.18;;;3.05;;
31798;SDS011;18374;51.136;3.502;2023-04-23T10:08:10;11.93;;;2.97;;
31798;SDS011;18374;51.136;3.502;2023-04-23T10:10:40;9.77;;;2.75;;
31798;SDS011;18374;51.136;3.502;2023-04-23T10:13:31;10.73;;;3.03;;
31798;SDS011;18374;51.136;3.502;2023-04-23T10:16:03;5.47;;;2.53;;
31798;SDS011;18374;51.136;3.502;2023-04-23T10:18:48;8.27;;;2.50;;
31798;SDS011;18374;51.136;3.502;2023-04-23T10:21:18;5.90;;;2.40;;
31798;SDS011;18374;51.136;3.502;2023-04-23T10:23:47;5.82;;;2.15;;
31798;SDS011;18374;51.136;3.502;2023-04-23T10:26:17;9.52;;;2.45;;
31798;SDS011;18374;51.136;3.502;2023-04-23T10:28:49;8.68;;;2.40;;
31798;SDS011;18374;51.136;3.502;2023-04-23T10:31:20;11.45;;;2.25;;
31798;SDS011;18374;51.136;3.502;2023-04-23T10:33:48;7.30;;;2.00;;
31798;SDS011;18374;51.136;3.502;2023-04-23T10:36:25;10.05;;;2.13;;
31798;SDS011;18374;51.136;3.502;2023-04-23T10:38:54;6.57;;;2.10;;
31798;SDS011;18374;51.136;3.502;2023-04-23T10:41:28;4.80;;;1.92;;
31798;SDS011;18374;51.136;3.502;2023-04-23T10:44:05;9.60;;;2.05;;
31798;SDS011;18374;51.136;3.502;2023-04-23T10:46:38;9.82;;;2.15;;
31798;SDS011;18374;51.136;3.502;2023-04-23T10:49:20;6.97;;;1.75;;
31798;SDS011;18374;51.136;3.502;2023-04-23T10:52:02;6.05;;;1.73;;
31798;SDS011;18374;51.136;3.502;2023-04-23T10:54:48;11.02;;;1.85;;
31798;SDS011;18374;51.136;3.502;2023-04-23T10:59:51;9.13;;;1.63;;
31798;SDS011;18374;51.136;3.502;2023-04-23T11:02:24;8.50;;;1.90;;
31798;SDS011;18374;51.136;3.502;2023-04-23T11:05:10;10.77;;;1.85;;
31798;SDS011;18374;51.136;3.502;2023-04-23T11:07:37;5.47;;;1.65;;
31798;SDS011;18374;51.136;3.502;2023-04-23T11:10:11;3.38;;;2.03;;
31798;SDS011;18374;51.136;3.502;2023-04-23T11:12:40;8.52;;;1.63;;
31798;SDS011;18374;51.136;3.502;2023-04-23T11:15:13;5.78;;;1.75;;
31798;SDS011;18374;51.136;3.502;2023-04-23T11:20:17;5.43;;;1.33;;
31798;SDS011;18374;51.136;3.502;2023-04-23T11:22:48;8.68;;;1.50;;
31798;SDS011;18374;51.136;3.502;2023-04-23T11:25:23;3.50;;;1.10;;
31798;SDS011;18374;51.136;3.502;2023-04-23T11:27:54;1.85;;;1.20;;
31798;SDS011;18374;51.136;3.502;2023-04-23T11:30:27;5.03;;;1.27;;
31798;SDS011;18374;51.136;3.502;2023-04-23T11:32:56;4.25;;;1.20;;
31798;SDS011;18374;51.136;3.502;2023-04-23T11:35:27;5.68;;;2.40;;
31798;SDS011;18374;51.136;3.502;2023-04-23T11:37:56;4.05;;;1.02;;
31798;SDS011;18374;51.136;3.502;2023-04-23T11:40:24;7.30;;;1.27;;
31798;SDS011;18374;51.136;3.502;2023-04-23T11:42:52;5.13;;;1.10;;
31798;SDS011;18374;51.136;3.502;2023-04-23T11:47:54;2.75;;;1.50;;
31798;SDS011;18374;51.136;3.502;2023-04-23T11:50:25;3.92;;;1.35;;
31798;SDS011;18374;51.136;3.502;2023-04-23T11:53:06;3.78;;;1.33;;
31798;SDS011;18374;51.136;3.502;2023-04-23T11:55:37;5.75;;;1.10;;
31798;SDS011;18374;51.136;3.502;2023-04-23T11:58:09;6.97;;;1.73;;
31798;SDS011;18374;51.136;3.502;2023-04-23T12:00:37;4.18;;;1.80;;
31798;SDS011;18374;51.136;3.502;2023-04-23T12:03:05;3.78;;;1.63;;
31798;SDS011;18374;51.136;3.502;2023-04-23T12:05:40;4.90;;;1.33;;
31798;SDS011;18374;51.136;3.502;2023-04-23T12:08:10;3.42;;;0.90;;
31798;SDS011;18374;51.136;3.502;2023-04-23T12:10:48;5.45;;;0.95;;
31798;SDS011;18374;51.136;3.502;2023-04-23T12:13:19;5.40;;;1.20;;
31798;SDS011;18374;51.136;3.502;2023-04-23T12:15:49;3.00;;;1.08;;
31798;SDS011;18374;51.136;3.502;2023-04-23T12:18:26;5.43;;;1.50;;
31798;SDS011;18374;51.136;3.502;2023-04-23T12:21:06;7.25;;;1.33;;
31798;SDS011;18374;51.136;3.502;2023-04-23T12:23:36;7.60;;;1.23;;
31798;SDS011;18374;51.136;3.502;2023-04-23T12:26:09;5.50;;;1.27;;
31798;SDS011;18374;51.136;3.502;2023-04-23T12:31:22;3.33;;;1.15;;
31798;SDS011;18374;51.136;3.502;2023-04-23T12:34:06;5.28;;;1.33;;
31798;SDS011;18374;51.136;3.502;2023-04-23T12:36:36;4.32;;;1.42;;
31798;SDS011;18374;51.136;3.502;2023-04-23T12:41:51;8.73;;;2.08;;
31798;SDS011;18374;51.136;3.502;2023-04-23T12:44:34;7.75;;;1.55;;
31798;SDS011;18374;51.136;3.502;2023-04-23T12:47:06;4.55;;;1.55;;
31798;SDS011;18374;51.136;3.502;2023-04-23T12:49:37;6.88;;;1.70;;
31798;SDS011;18374;51.136;3.502;2023-04-23T12:52:07;3.55;;;1.38;;
31798;SDS011;18374;51.136;3.502;2023-04-23T12:54:39;3.90;;;1.52;;
31798;SDS011;18374;51.136;3.502;2023-04-23T12:57:09;3.63;;;1.00;;
31798;SDS011;18374;51.136;3.502;2023-04-23T12:59:38;3.10;;;1.20;;
31798;SDS011;18374;51.136;3.502;2023-04-23T13:02:07;2.25;;;0.98;;
31798;SDS011;18374;51.136;3.502;2023-04-23T13:04:35;7.95;;;1.42;;
31798;SDS011;18374;51.136;3.502;2023-04-23T13:07:03;2.50;;;1.10;;
31798;SDS011;18374;51.136;3.502;2023-04-23T13:09:31;3.15;;;0.90;;
31798;SDS011;18374;51.136;3.502;2023-04-23T13:11:58;4.40;;;1.20;;
31798;SDS011;18374;51.136;3.502;2023-04-23T13:14:28;2.92;;;0.90;;
31798;SDS011;18374;51.136;3.502;2023-04-23T13:16:58;2.05;;;1.08;;
31798;SDS011;18374;51.136;3.502;2023-04-23T13:19:25;1.40;;;0.88;;
31798;SDS011;18374;51.136;3.502;2023-04-23T13:21:55;2.55;;;0.80;;
31798;SDS011;18374;51.136;3.502;2023-04-23T13:24:23;4.38;;;1.00;;
31798;SDS011;18374;51.136;3.502;2023-04-23T13:26:51;3.88;;;1.08;;
31798;SDS011;18374;51.136;3.502;2023-04-23T13:29:19;2.20;;;0.90;;
31798;SDS011;18374;51.136;3.502;2023-04-23T13:31:46;4.07;;;1.15;;
31798;SDS011;18374;51.136;3.502;2023-04-23T13:34:14;2.15;;;0.85;;
31798;SDS011;18374;51.136;3.502;2023-04-23T13:36:43;3.80;;;0.80;;
31798;SDS011;18374;51.136;3.502;2023-04-23T13:39:11;3.25;;;1.00;;
31798;SDS011;18374;51.136;3.502;2023-04-23T13:41:40;2.83;;;0.90;;
31798;SDS011;18374;51.136;3.502;2023-04-23T13:44:08;3.72;;;1.08;;
31798;SDS011;18374;51.136;3.502;2023-04-23T13:46:36;1.88;;;0.90;;
31798;SDS011;18374;51.136;3.502;2023-04-23T13:49:06;3.63;;;0.77;;
31798;SDS011;18374;51.136;3.502;2023-04-23T13:51:33;2.45;;;0.82;;
31798;SDS011;18374;51.136;3.502;2023-04-23T13:54:02;3.80;;;1.20;;
31798;SDS011;18374;51.136;3.502;2023-04-23T13:56:31;1.33;;;0.80;;
31798;SDS011;18374;51.136;3.502;2023-04-23T13:58:58;2.10;;;0.95;;
31798;SDS011;18374;51.136;3.502;2023-04-23T14:01:31;5.47;;;1.20;;
31798;SDS011;18374;51.136;3.502;2023-04-23T14:03:59;2.55;;;1.13;;
31798;SDS011;18374;51.136;3.502;2023-04-23T14:06:26;4.30;;;1.13;;
31798;SDS011;18374;51.136;3.502;2023-04-23T14:08:54;3.10;;;1.33;;
31798;SDS011;18374;51.136;3.502;2023-04-23T14:11:22;2.30;;;1.17;;
31798;SDS011;18374;51.136;3.502;2023-04-23T14:13:51;1.35;;;1.10;;
31798;SDS011;18374;51.136;3.502;2023-04-23T14:16:20;1.25;;;0.90;;
31798;SDS011;18374;51.136;3.502;2023-04-23T14:18:47;2.97;;;1.08;;
31798;SDS011;18374;51.136;3.502;2023-04-23T14:21:15;5.05;;;1.38;;
31798;SDS011;18374;51.136;3.502;2023-04-23T14:26:32;2.65;;;1.13;;
31798;SDS011;18374;51.136;3.502;2023-04-23T14:32:00;1.90;;;1.30;;
31798;SDS011;18374;51.136;3.502;2023-04-23T14:34:28;1.38;;;1.13;;
31798;SDS011;18374;51.136;3.502;2023-04-23T14:36:56;3.42;;;1.58;;
31798;SDS011;18374;51.136;3.502;2023-04-23T14:39:24;3.35;;;1.08;;
31798;SDS011;18374;51.136;3.502;2023-04-23T14:41:53;2.92;;;1.38;;
31798;SDS011;18374;51.136;3.502;2023-04-23T14:44:21;1.35;;;1.08;;
31798;SDS011;18374;51.136;3.502;2023-04-23T14:46:49;3.20;;;1.10;;
31798;SDS011;18374;51.136;3.502;2023-04-23T14:49:17;1.92;;;1.35;;
31798;SDS011;18374;51.136;3.502;2023-04-23T14:51:49;2.17;;;1.10;;
31798;SDS011;18374;51.136;3.502;2023-04-23T14:54:21;1.95;;;1.30;;
31798;SDS011;18374;51.136;3.502;2023-04-23T14:56:50;2.45;;;1.33;;
31798;SDS011;18374;51.136;3.502;2023-04-23T14:59:18;1.65;;;1.20;;
31798;SDS011;18374;51.136;3.502;2023-04-23T15:01:47;5.10;;;1.50;;
31798;SDS011;18374;51.136;3.502;2023-04-23T15:04:15;4.75;;;1.38;;
31798;SDS011;18374;51.136;3.502;2023-04-23T15:06:43;3.08;;;1.33;;
31798;SDS011;18374;51.136;3.502;2023-04-23T15:09:11;3.45;;;1.25;;
31798;SDS011;18374;51.136;3.502;2023-04-23T15:11:39;2.80;;;1.45;;
31798;SDS011;18374;51.136;3.502;2023-04-23T15:14:08;2.60;;;1.30;;
31798;SDS011;18374;51.136;3.502;2023-04-23T15:16:47;2.55;;;1.50;;